sensor_id;sensor_type;location;lat;lon;timestamp;temperature;humidity
23089;DHT22;11713;48.506;8.966;2023-03-31T00:00:52;10.50;99.90
23089;DHT22;11713;48.506;8.966;2023-03-31T00:03:18;10.40;99.90
23089;DHT22;11713;48.506;8.966;2023-03-31T00:05:57;10.40;99.90
23089;DHT22;11713;48.506;8.966;2023-03-31T00:08:23;10.30;99.90
23089;DHT22;11713;48.506;8.966;2023-03-31T00:10:49;10.10;99.90
23089;DHT22;11713;48.506;8.966;2023-03-31T00:13:15;10.00;99.90
23089;DHT22;11713;48.506;8.966;2023-03-31T00:15:41;10.00;99.90
23089;DHT22;11713;48.506;8.966;2023-03-31T00:18:07;10.00;99.90
23089;DHT22;11713;48.506;8.966;2023-03-31T00:20:33;10.10;99.90
23089;DHT22;11713;48.506;8.966;2023-03-31T00:23:03;10.20;99.90
23089;DHT22;11713;48.506;8.966;2023-03-31T00:25:30;10.20;99.90
23089;DHT22;11713;48.506;8.966;2023-03-31T00:27:56;10.30;99.90
23089;DHT22;11713;48.506;8.966;2023-03-31T00:30:22;10.30;99.90
23089;DHT22;11713;48.506;8.966;2023-03-31T00:32:48;10.30;99.90
23089;DHT22;11713;48.506;8.966;2023-03-31T00:35:14;10.30;99.90
23089;DHT22;11713;48.506;8.966;2023-03-31T00:37:40;10.30;99.90
23089;DHT22;11713;48.506;8.966;2023-03-31T00:40:08;10.30;99.90
23089;DHT22;11713;48.506;8.966;2023-03-31T00:42:41;10.30;99.90
23089;DHT22;11713;48.506;8.966;2023-03-31T00:47:33;10.30;99.90
23089;DHT22;11713;48.506;8.966;2023-03-31T00:49:59;10.30;99.90
23089;DHT22;11713;48.506;8.966;2023-03-31T00:52:31;10.30;99.90
23089;DHT22;11713;48.506;8.966;2023-03-31T00:55:07;10.40;99.90
23089;DHT22;11713;48.506;8.966;2023-03-31T00:57:35;10.30;99.90
23089;DHT22;11713;48.506;8.966;2023-03-31T01:00:07;10.40;99.90
23089;DHT22;11713;48.506;8.966;2023-03-31T01:02:39;10.40;99.90
23089;DHT22;11713;48.506;8.966;2023-03-31T01:05:07;10.40;99.90
23089;DHT22;11713;48.506;8.966;2023-03-31T01:07:37;10.40;99.90
23089;DHT22;11713;48.506;8.966;2023-03-31T01:10:04;10.40;99.90
23089;DHT22;11713;48.506;8.966;2023-03-31T01:12:33;10.40;99.90
23089;DHT22;11713;48.506;8.966;2023-03-31T01:15:03;10.40;99.90
23089;DHT22;11713;48.506;8.966;2023-03-31T01:17:29;10.40;99.90
23089;DHT22;11713;48.506;8.966;2023-03-31T01:33:36;10.30;99.90
23089;DHT22;11713;48.506;8.966;2023-03-31T01:41:57;10.20;99.90
23089;DHT22;11713;48.506;8.966;2023-03-31T01:47:18;10.40;99.90
23089;DHT22;11713;48.506;8.966;2023-03-31T02:00:35;11.00;99.90
23089;DHT22;11713;48.506;8.966;2023-03-31T02:03:10;10.90;99.90
23089;DHT22;11713;48.506;8.966;2023-03-31T02:05:54;10.90;99.90
23089;DHT22;11713;48.506;8.966;2023-03-31T02:08:30;10.90;99.90
23089;DHT22;11713;48.506;8.966;2023-03-31T04:26:54;8.80;99.90
23089;DHT22;11713;48.506;8.966;2023-03-31T04:29:21;8.80;99.90
23089;DHT22;11713;48.506;8.966;2023-03-31T04:31:54;8.80;99.90
23089;DHT22;11713;48.506;8.966;2023-03-31T04:34:24;8.90;99.90
23089;DHT22;11713;48.506;8.966;2023-03-31T04:36:51;8.90;99.90
23089;DHT22;11713;48.506;8.966;2023-03-31T04:39:21;8.90;99.90
23089;DHT22;11713;48.506;8.966;2023-03-31T04:41:56;8.90;99.90
23089;DHT22;11713;48.506;8.966;2023-03-31T04:44:22;8.90;99.90
23089;DHT22;11713;48.506;8.966;2023-03-31T04:46:48;9.00;99.90
23089;DHT22;11713;48.506;8.966;2023-03-31T04:49:14;9.00;99.90
23089;DHT22;11713;48.506;8.966;2023-03-31T04:51:40;9.10;99.90
23089;DHT22;11713;48.506;8.966;2023-03-31T04:54:06;9.10;99.90
23089;DHT22;11713;48.506;8.966;2023-03-31T04:56:32;9.10;99.90
23089;DHT22;11713;48.506;8.966;2023-03-31T04:58:58;9.20;99.90
23089;DHT22;11713;48.506;8.966;2023-03-31T05:01:24;9.20;99.90
23089;DHT22;11713;48.506;8.966;2023-03-31T05:03:50;9.20;99.90
23089;DHT22;11713;48.506;8.966;2023-03-31T05:06:21;9.20;99.90
23089;DHT22;11713;48.506;8.966;2023-03-31T05:08:47;9.30;99.90
23089;DHT22;11713;48.506;8.966;2023-03-31T05:11:13;9.30;99.90
23089;DHT22;11713;48.506;8.966;2023-03-31T05:13:40;9.30;99.90
23089;DHT22;11713;48.506;8.966;2023-03-31T05:16:08;9.30;99.90
23089;DHT22;11713;48.506;8.966;2023-03-31T05:18:34;9.30;99.90
23089;DHT22;11713;48.506;8.966;2023-03-31T05:21:14;9.30;99.90
23089;DHT22;11713;48.506;8.966;2023-03-31T05:23:51;9.20;99.90
23089;DHT22;11713;48.506;8.966;2023-03-31T05:26:18;9.20;99.90
23089;DHT22;11713;48.506;8.966;2023-03-31T05:32:33;9.30;99.90
23089;DHT22;11713;48.506;8.966;2023-03-31T05:34:59;9.20;99.90
23089;DHT22;11713;48.506;8.966;2023-03-31T05:37:25;9.20;99.90
23089;DHT22;11713;48.506;8.966;2023-03-31T05:39:52;9.10;99.90
23089;DHT22;11713;48.506;8.966;2023-03-31T05:42:18;9.00;99.90
23089;DHT22;11713;48.506;8.966;2023-03-31T05:44:45;8.90;99.90
23089;DHT22;11713;48.506;8.966;2023-03-31T05:47:11;8.90;99.90
23089;DHT22;11713;48.506;8.966;2023-03-31T05:49:38;8.80;99.90
23089;DHT22;11713;48.506;8.966;2023-03-31T05:52:08;8.90;99.90
23089;DHT22;11713;48.506;8.966;2023-03-31T07:18:36;9.70;99.90
23089;DHT22;11713;48.506;8.966;2023-03-31T07:21:07;9.70;99.90
23089;DHT22;11713;48.506;8.966;2023-03-31T07:23:34;9.70;99.90
23089;DHT22;11713;48.506;8.966;2023-03-31T08:04:20;10.60;99.90
23089;DHT22;11713;48.506;8.966;2023-03-31T08:06:45;10.90;99.90
23089;DHT22;11713;48.506;8.966;2023-03-31T08:09:12;11.00;99.90
23089;DHT22;11713;48.506;8.966;2023-03-31T08:11:39;11.20;99.90
23089;DHT22;11713;48.506;8.966;2023-03-31T08:14:09;11.30;99.90
23089;DHT22;11713;48.506;8.966;2023-03-31T08:16:35;11.50;99.90
23089;DHT22;11713;48.506;8.966;2023-03-31T08:19:01;11.60;99.90
23089;DHT22;11713;48.506;8.966;2023-03-31T08:21:28;11.80;99.90
23089;DHT22;11713;48.506;8.966;2023-03-31T08:23:56;11.90;99.90
23089;DHT22;11713;48.506;8.966;2023-03-31T08:26:23;12.10;99.90
23089;DHT22;11713;48.506;8.966;2023-03-31T08:28:50;12.20;99.90
23089;DHT22;11713;48.506;8.966;2023-03-31T08:31:18;12.30;99.90
23089;DHT22;11713;48.506;8.966;2023-03-31T08:33:45;12.50;99.90
23089;DHT22;11713;48.506;8.966;2023-03-31T08:36:12;12.60;99.90
23089;DHT22;11713;48.506;8.966;2023-03-31T08:38:40;12.70;99.90
23089;DHT22;11713;48.506;8.966;2023-03-31T08:43:55;13.00;99.90
23089;DHT22;11713;48.506;8.966;2023-03-31T08:46:24;13.10;99.90
23089;DHT22;11713;48.506;8.966;2023-03-31T08:48:56;13.20;99.90
23089;DHT22;11713;48.506;8.966;2023-03-31T08:51:27;13.40;99.90
23089;DHT22;11713;48.506;8.966;2023-03-31T08:54:12;13.50;99.90
23089;DHT22;11713;48.506;8.966;2023-03-31T08:56:42;13.60;99.90
23089;DHT22;11713;48.506;8.966;2023-03-31T08:59:29;13.60;99.90
23089;DHT22;11713;48.506;8.966;2023-03-31T09:18:19;14.20;99.90
23089;DHT22;11713;48.506;8.966;2023-03-31T09:20:51;14.20;99.90
23089;DHT22;11713;48.506;8.966;2023-03-31T09:23:33;14.10;99.90
23089;DHT22;11713;48.506;8.966;2023-03-31T09:26:02;14.20;99.90
23089;DHT22;11713;48.506;8.966;2023-03-31T09:28:38;14.10;99.90
23089;DHT22;11713;48.506;8.966;2023-03-31T09:31:12;14.20;99.90
23089;DHT22;11713;48.506;8.966;2023-03-31T09:33:46;14.00;99.90
23089;DHT22;11713;48.506;8.966;2023-03-31T09:36:15;13.90;99.90
23089;DHT22;11713;48.506;8.966;2023-03-31T09:38:43;14.00;99.90
23089;DHT22;11713;48.506;8.966;2023-03-31T09:41:10;14.20;99.90
23089;DHT22;11713;48.506;8.966;2023-03-31T09:43:43;14.30;99.90
23089;DHT22;11713;48.506;8.966;2023-03-31T09:46:30;14.30;99.90
23089;DHT22;11713;48.506;8.966;2023-03-31T09:49:13;14.40;99.90
23089;DHT22;11713;48.506;8.966;2023-03-31T09:51:48;14.50;99.90
23089;DHT22;11713;48.506;8.966;2023-03-31T09:54:33;14.70;99.90
23089;DHT22;11713;48.506;8.966;2023-03-31T09:57:00;14.90;99.90
23089;DHT22;11713;48.506;8.966;2023-03-31T09:59:33;15.00;99.90
23089;DHT22;11713;48.506;8.966;2023-03-31T10:02:03;15.00;99.90
23089;DHT22;11713;48.506;8.966;2023-03-31T10:04:33;15.00;99.90
23089;DHT22;11713;48.506;8.966;2023-03-31T10:07:00;15.10;99.90
23089;DHT22;11713;48.506;8.966;2023-03-31T10:09:30;15.10;99.90
23089;DHT22;11713;48.506;8.966;2023-03-31T10:12:02;15.30;99.90
23089;DHT22;11713;48.506;8.966;2023-03-31T10:14:46;15.20;99.90
23089;DHT22;11713;48.506;8.966;2023-03-31T10:17:20;15.10;99.90
23089;DHT22;11713;48.506;8.966;2023-03-31T10:20:52;15.30;99.90
23089;DHT22;11713;48.506;8.966;2023-03-31T10:25:46;15.10;99.90
23089;DHT22;11713;48.506;8.966;2023-03-31T10:28:18;15.20;99.90
23089;DHT22;11713;48.506;8.966;2023-03-31T10:30:51;15.20;99.90
23089;DHT22;11713;48.506;8.966;2023-03-31T10:33:22;15.30;99.90
23089;DHT22;11713;48.506;8.966;2023-03-31T10:35:54;15.40;99.90
23089;DHT22;11713;48.506;8.966;2023-03-31T10:38:29;15.30;99.90
23089;DHT22;11713;48.506;8.966;2023-03-31T10:40:58;15.50;99.90
23089;DHT22;11713;48.506;8.966;2023-03-31T10:43:38;15.60;99.90
23089;DHT22;11713;48.506;8.966;2023-03-31T10:46:06;15.70;99.90
23089;DHT22;11713;48.506;8.966;2023-03-31T10:48:36;15.80;99.90
23089;DHT22;11713;48.506;8.966;2023-03-31T10:51:16;15.80;99.90
23089;DHT22;11713;48.506;8.966;2023-03-31T10:53:54;15.70;99.90
23089;DHT22;11713;48.506;8.966;2023-03-31T10:57:17;15.80;99.90
23089;DHT22;11713;48.506;8.966;2023-03-31T11:03:34;16.00;99.90
23089;DHT22;11713;48.506;8.966;2023-03-31T11:20:11;12.20;99.90
23089;DHT22;11713;48.506;8.966;2023-03-31T11:22:43;11.20;99.90
23089;DHT22;11713;48.506;8.966;2023-03-31T11:31:24;10.20;99.90
23089;DHT22;11713;48.506;8.966;2023-03-31T11:42:32;9.60;99.90
23089;DHT22;11713;48.506;8.966;2023-03-31T11:45:22;9.50;99.90
23089;DHT22;11713;48.506;8.966;2023-03-31T11:47:53;9.50;99.90
23089;DHT22;11713;48.506;8.966;2023-03-31T11:50:23;9.50;99.90
23089;DHT22;11713;48.506;8.966;2023-03-31T11:53:15;9.50;99.90
23089;DHT22;11713;48.506;8.966;2023-03-31T11:55:42;9.70;99.90
23089;DHT22;11713;48.506;8.966;2023-03-31T11:58:17;9.90;99.90
23089;DHT22;11713;48.506;8.966;2023-03-31T12:01:40;10.00;99.90
23089;DHT22;11713;48.506;8.966;2023-03-31T12:06:44;10.30;99.90
23089;DHT22;11713;48.506;8.966;2023-03-31T12:14:33;10.50;99.90
23089;DHT22;11713;48.506;8.966;2023-03-31T12:17:11;10.60;99.90
23089;DHT22;11713;48.506;8.966;2023-03-31T12:20:10;10.70;99.90
23089;DHT22;11713;48.506;8.966;2023-03-31T12:22:47;11.10;99.90
23089;DHT22;11713;48.506;8.966;2023-03-31T12:25:16;11.30;99.90
23089;DHT22;11713;48.506;8.966;2023-03-31T12:27:45;11.50;99.90
23089;DHT22;11713;48.506;8.966;2023-03-31T12:30:35;11.80;99.90
23089;DHT22;11713;48.506;8.966;2023-03-31T12:33:13;12.00;99.90
23089;DHT22;11713;48.506;8.966;2023-03-31T12:50:43;12.80;99.90
23089;DHT22;11713;48.506;8.966;2023-03-31T12:56:22;13.10;99.90
23089;DHT22;11713;48.506;8.966;2023-03-31T12:58:49;13.20;99.90
23089;DHT22;11713;48.506;8.966;2023-03-31T13:01:22;13.20;99.90
23089;DHT22;11713;48.506;8.966;2023-03-31T13:11:39;12.80;99.90
23089;DHT22;11713;48.506;8.966;2023-03-31T13:14:21;12.80;99.90
23089;DHT22;11713;48.506;8.966;2023-03-31T13:16:50;12.80;99.90
23089;DHT22;11713;48.506;8.966;2023-03-31T13:19:35;12.70;99.90
23089;DHT22;11713;48.506;8.966;2023-03-31T13:22:03;12.70;99.90
23089;DHT22;11713;48.506;8.966;2023-03-31T13:24:31;12.60;99.90
23089;DHT22;11713;48.506;8.966;2023-03-31T13:29:43;12.60;99.90
23089;DHT22;11713;48.506;8.966;2023-03-31T13:32:25;12.70;99.90
23089;DHT22;11713;48.506;8.966;2023-03-31T13:35:16;12.70;99.90
23089;DHT22;11713;48.506;8.966;2023-03-31T13:38:14;12.50;99.90
23089;DHT22;11713;48.506;8.966;2023-03-31T13:43:55;12.10;99.90
23089;DHT22;11713;48.506;8.966;2023-03-31T13:51:55;11.40;99.90
23089;DHT22;11713;48.506;8.966;2023-03-31T14:04:54;11.40;99.90
23089;DHT22;11713;48.506;8.966;2023-03-31T14:07:40;11.40;99.90
23089;DHT22;11713;48.506;8.966;2023-03-31T14:10:33;11.60;99.90
23089;DHT22;11713;48.506;8.966;2023-03-31T14:15:42;11.40;99.90
23089;DHT22;11713;48.506;8.966;2023-03-31T14:18:15;11.30;99.90
23089;DHT22;11713;48.506;8.966;2023-03-31T14:21:10;11.10;99.90
23089;DHT22;11713;48.506;8.966;2023-03-31T14:37:15;11.20;99.90
23089;DHT22;11713;48.506;8.966;2023-03-31T14:39:53;11.20;99.90
23089;DHT22;11713;48.506;8.966;2023-03-31T14:42:40;11.10;99.90
23089;DHT22;11713;48.506;8.966;2023-03-31T14:45:29;11.20;99.90
23089;DHT22;11713;48.506;8.966;2023-03-31T14:48:12;11.30;99.90
23089;DHT22;11713;48.506;8.966;2023-03-31T14:50:42;11.40;99.90
23089;DHT22;11713;48.506;8.966;2023-03-31T14:53:15;11.40;99.90
23089;DHT22;11713;48.506;8.966;2023-03-31T14:55:42;11.50;99.90
23089;DHT22;11713;48.506;8.966;2023-03-31T14:58:13;11.50;99.90
23089;DHT22;11713;48.506;8.966;2023-03-31T15:00:40;11.60;99.90
23089;DHT22;11713;48.506;8.966;2023-03-31T15:03:09;11.70;99.90
23089;DHT22;11713;48.506;8.966;2023-03-31T15:05:39;12.00;99.90
23089;DHT22;11713;48.506;8.966;2023-03-31T15:08:26;12.20;99.90
23089;DHT22;11713;48.506;8.966;2023-03-31T15:10:56;12.30;99.90
23089;DHT22;11713;48.506;8.966;2023-03-31T15:13:40;12.30;99.90
23089;DHT22;11713;48.506;8.966;2023-03-31T15:18:56;12.30;99.90
23089;DHT22;11713;48.506;8.966;2023-03-31T15:21:27;12.20;99.90
23089;DHT22;11713;48.506;8.966;2023-03-31T15:23:56;12.20;99.90
23089;DHT22;11713;48.506;8.966;2023-03-31T15:26:31;12.10;99.90
23089;DHT22;11713;48.506;8.966;2023-03-31T15:29:10;12.00;99.90
23089;DHT22;11713;48.506;8.966;2023-03-31T15:31:38;11.90;99.90
23089;DHT22;11713;48.506;8.966;2023-03-31T15:34:24;11.80;99.90
23089;DHT22;11713;48.506;8.966;2023-03-31T15:36:56;11.80;99.90
23089;DHT22;11713;48.506;8.966;2023-03-31T15:39:24;11.70;99.90
23089;DHT22;11713;48.506;8.966;2023-03-31T15:41:52;11.70;99.90
23089;DHT22;11713;48.506;8.966;2023-03-31T15:44:53;11.70;99.90
23089;DHT22;11713;48.506;8.966;2023-03-31T15:47:27;11.70;99.90
23089;DHT22;11713;48.506;8.966;2023-03-31T15:49:58;11.70;99.90
23089;DHT22;11713;48.506;8.966;2023-03-31T15:52:33;11.70;99.90
23089;DHT22;11713;48.506;8.966;2023-03-31T15:55:00;11.70;99.90
23089;DHT22;11713;48.506;8.966;2023-03-31T15:57:34;11.70;99.90
23089;DHT22;11713;48.506;8.966;2023-03-31T16:00:01;11.70;99.90
23089;DHT22;11713;48.506;8.966;2023-03-31T16:02:42;11.70;99.90
23089;DHT22;11713;48.506;8.966;2023-03-31T16:05:41;11.70;99.90
23089;DHT22;11713;48.506;8.966;2023-03-31T16:08:15;11.60;99.90
23089;DHT22;11713;48.506;8.966;2023-03-31T16:10:45;11.60;99.90
23089;DHT22;11713;48.506;8.966;2023-03-31T16:13:17;11.60;99.90
23089;DHT22;11713;48.506;8.966;2023-03-31T16:15:49;11.50;99.90
23089;DHT22;11713;48.506;8.966;2023-03-31T16:18:35;11.50;99.90
23089;DHT22;11713;48.506;8.966;2023-03-31T16:21:04;11.50;99.90
23089;DHT22;11713;48.506;8.966;2023-03-31T16:23:34;11.50;99.90
23089;DHT22;11713;48.506;8.966;2023-03-31T16:26:03;11.50;99.90
23089;DHT22;11713;48.506;8.966;2023-03-31T16:28:34;11.40;99.90
23089;DHT22;11713;48.506;8.966;2023-03-31T16:31:01;11.40;99.90
23089;DHT22;11713;48.506;8.966;2023-03-31T16:33:28;11.30;99.90
23089;DHT22;11713;48.506;8.966;2023-03-31T16:35:56;11.00;99.90
23089;DHT22;11713;48.506;8.966;2023-03-31T16:38:25;10.70;99.90
23089;DHT22;11713;48.506;8.966;2023-03-31T16:40:53;10.50;99.90
23089;DHT22;11713;48.506;8.966;2023-03-31T16:43:23;10.40;99.90
23089;DHT22;11713;48.506;8.966;2023-03-31T16:45:55;10.30;99.90
23089;DHT22;11713;48.506;8.966;2023-03-31T16:48:22;10.30;99.90
23089;DHT22;11713;48.506;8.966;2023-03-31T16:50:52;10.20;99.90
23089;DHT22;11713;48.506;8.966;2023-03-31T16:53:25;10.00;99.90
23089;DHT22;11713;48.506;8.966;2023-03-31T16:55:52;10.00;99.90
23089;DHT22;11713;48.506;8.966;2023-03-31T16:58:19;10.00;99.90
23089;DHT22;11713;48.506;8.966;2023-03-31T17:00:46;10.00;99.90
23089;DHT22;11713;48.506;8.966;2023-03-31T17:03:12;10.00;99.90
23089;DHT22;11713;48.506;8.966;2023-03-31T17:05:40;10.00;99.90
23089;DHT22;11713;48.506;8.966;2023-03-31T17:08:08;10.00;99.90
23089;DHT22;11713;48.506;8.966;2023-03-31T17:10:35;10.00;99.90
23089;DHT22;11713;48.506;8.966;2023-03-31T17:13:01;10.00;99.90
23089;DHT22;11713;48.506;8.966;2023-03-31T17:15:27;10.00;99.90
23089;DHT22;11713;48.506;8.966;2023-03-31T17:17:55;10.00;99.90
23089;DHT22;11713;48.506;8.966;2023-03-31T17:20:21;10.00;99.90
23089;DHT22;11713;48.506;8.966;2023-03-31T17:22:47;10.10;99.90
23089;DHT22;11713;48.506;8.966;2023-03-31T17:25:13;10.10;99.90
23089;DHT22;11713;48.506;8.966;2023-03-31T17:27:39;10.00;99.90
23089;DHT22;11713;48.506;8.966;2023-03-31T17:30:05;10.00;99.90
23089;DHT22;11713;48.506;8.966;2023-03-31T17:32:32;10.00;99.90
23089;DHT22;11713;48.506;8.966;2023-03-31T17:34:58;10.00;99.90
23089;DHT22;11713;48.506;8.966;2023-03-31T17:37:24;10.00;99.90
23089;DHT22;11713;48.506;8.966;2023-03-31T17:39:50;9.90;99.90
23089;DHT22;11713;48.506;8.966;2023-03-31T17:42:16;9.90;99.90
23089;DHT22;11713;48.506;8.966;2023-03-31T17:44:44;9.90;99.90
23089;DHT22;11713;48.506;8.966;2023-03-31T17:47:12;9.80;99.90
23089;DHT22;11713;48.506;8.966;2023-03-31T17:49:39;9.80;99.90
23089;DHT22;11713;48.506;8.966;2023-03-31T17:52:05;9.70;99.90
23089;DHT22;11713;48.506;8.966;2023-03-31T17:54:31;9.70;99.90
23089;DHT22;11713;48.506;8.966;2023-03-31T17:56:57;9.70;99.90
23089;DHT22;11713;48.506;8.966;2023-03-31T17:59:23;9.60;99.90
23089;DHT22;11713;48.506;8.966;2023-03-31T18:01:49;9.60;99.90
23089;DHT22;11713;48.506;8.966;2023-03-31T18:04:15;9.60;99.90
23089;DHT22;11713;48.506;8.966;2023-03-31T18:06:41;9.60;99.90
23089;DHT22;11713;48.506;8.966;2023-03-31T18:09:10;9.60;99.90
23089;DHT22;11713;48.506;8.966;2023-03-31T18:11:36;9.60;99.90
23089;DHT22;11713;48.506;8.966;2023-03-31T18:14:02;9.60;99.90
23089;DHT22;11713;48.506;8.966;2023-03-31T18:16:29;9.60;99.90
23089;DHT22;11713;48.506;8.966;2023-03-31T18:18:56;9.60;99.90
23089;DHT22;11713;48.506;8.966;2023-03-31T18:21:22;9.60;99.90
23089;DHT22;11713;48.506;8.966;2023-03-31T18:23:49;9.60;99.90
23089;DHT22;11713;48.506;8.966;2023-03-31T18:26:23;9.60;99.90
23089;DHT22;11713;48.506;8.966;2023-03-31T18:28:49;9.60;99.90
23089;DHT22;11713;48.506;8.966;2023-03-31T18:31:15;9.60;99.90
23089;DHT22;11713;48.506;8.966;2023-03-31T18:33:41;9.60;99.90
23089;DHT22;11713;48.506;8.966;2023-03-31T18:36:11;9.60;99.90
23089;DHT22;11713;48.506;8.966;2023-03-31T18:38:38;9.60;99.90
23089;DHT22;11713;48.506;8.966;2023-03-31T18:41:04;9.50;99.90
23089;DHT22;11713;48.506;8.966;2023-03-31T18:43:30;9.50;99.90
23089;DHT22;11713;48.506;8.966;2023-03-31T18:45:56;9.50;99.90
23089;DHT22;11713;48.506;8.966;2023-03-31T18:48:23;9.50;99.90
23089;DHT22;11713;48.506;8.966;2023-03-31T18:50:50;9.50;99.90
23089;DHT22;11713;48.506;8.966;2023-03-31T18:53:17;9.50;99.90
23089;DHT22;11713;48.506;8.966;2023-03-31T18:55:57;9.40;99.90
23089;DHT22;11713;48.506;8.966;2023-03-31T18:58:25;9.40;99.90
23089;DHT22;11713;48.506;8.966;2023-03-31T19:00:52;9.40;99.90
23089;DHT22;11713;48.506;8.966;2023-03-31T19:03:18;9.40;99.90
23089;DHT22;11713;48.506;8.966;2023-03-31T19:05:44;9.40;99.90
23089;DHT22;11713;48.506;8.966;2023-03-31T19:08:10;9.40;99.90
23089;DHT22;11713;48.506;8.966;2023-03-31T19:10:36;9.40;99.90
23089;DHT22;11713;48.506;8.966;2023-03-31T19:13:02;9.40;99.90
23089;DHT22;11713;48.506;8.966;2023-03-31T19:15:28;9.40;99.90
23089;DHT22;11713;48.506;8.966;2023-03-31T19:17:54;9.40;99.90
23089;DHT22;11713;48.506;8.966;2023-03-31T19:20:20;9.40;99.90
23089;DHT22;11713;48.506;8.966;2023-03-31T19:22:49;9.40;99.90
23089;DHT22;11713;48.506;8.966;2023-03-31T19:25:17;9.40;99.90
23089;DHT22;11713;48.506;8.966;2023-03-31T19:27:44;9.40;99.90
23089;DHT22;11713;48.506;8.966;2023-03-31T19:30:19;9.40;99.90
23089;DHT22;11713;48.506;8.966;2023-03-31T19:32:47;9.40;99.90
23089;DHT22;11713;48.506;8.966;2023-03-31T19:35:15;9.40;99.90
23089;DHT22;11713;48.506;8.966;2023-03-31T19:37:40;9.40;99.90
23089;DHT22;11713;48.506;8.966;2023-03-31T19:40:07;9.40;99.90
23089;DHT22;11713;48.506;8.966;2023-03-31T19:42:33;9.40;99.90
23089;DHT22;11713;48.506;8.966;2023-03-31T19:44:59;9.30;99.90
23089;DHT22;11713;48.506;8.966;2023-03-31T19:47:25;9.30;99.90
23089;DHT22;11713;48.506;8.966;2023-03-31T19:49:51;9.30;99.90
23089;DHT22;11713;48.506;8.966;2023-03-31T19:52:18;9.30;99.90
23089;DHT22;11713;48.506;8.966;2023-03-31T19:54:45;9.30;99.90
23089;DHT22;11713;48.506;8.966;2023-03-31T19:57:11;9.30;99.90
23089;DHT22;11713;48.506;8.966;2023-03-31T19:59:37;9.30;99.90
23089;DHT22;11713;48.506;8.966;2023-03-31T20:02:03;9.30;99.90
23089;DHT22;11713;48.506;8.966;2023-03-31T20:04:31;9.30;99.90
23089;DHT22;11713;48.506;8.966;2023-03-31T20:06:57;9.30;99.90
23089;DHT22;11713;48.506;8.966;2023-03-31T20:09:24;9.20;99.90
23089;DHT22;11713;48.506;8.966;2023-03-31T20:11:51;9.20;99.90
23089;DHT22;11713;48.506;8.966;2023-03-31T20:14:21;9.20;99.90
23089;DHT22;11713;48.506;8.966;2023-03-31T20:16:47;9.20;99.90
23089;DHT22;11713;48.506;8.966;2023-03-31T20:19:15;9.20;99.90
23089;DHT22;11713;48.506;8.966;2023-03-31T20:21:42;9.20;99.90
23089;DHT22;11713;48.506;8.966;2023-03-31T20:24:15;9.20;99.90
23089;DHT22;11713;48.506;8.966;2023-03-31T20:26:42;9.20;99.90
23089;DHT22;11713;48.506;8.966;2023-03-31T20:29:09;9.20;99.90
23089;DHT22;11713;48.506;8.966;2023-03-31T20:31:36;9.20;99.90
23089;DHT22;11713;48.506;8.966;2023-03-31T20:34:04;9.20;99.90
23089;DHT22;11713;48.506;8.966;2023-03-31T20:36:31;9.20;99.90
23089;DHT22;11713;48.506;8.966;2023-03-31T20:39:01;9.20;99.90
23089;DHT22;11713;48.506;8.966;2023-03-31T20:41:33;9.10;99.90
23089;DHT22;11713;48.506;8.966;2023-03-31T20:44:01;9.10;99.90
23089;DHT22;11713;48.506;8.966;2023-03-31T20:46:27;9.10;99.90
23089;DHT22;11713;48.506;8.966;2023-03-31T20:48:56;9.10;99.90
23089;DHT22;11713;48.506;8.966;2023-03-31T20:51:24;9.00;99.90
23089;DHT22;11713;48.506;8.966;2023-03-31T20:53:52;9.10;99.90
23089;DHT22;11713;48.506;8.966;2023-03-31T20:56:30;9.10;99.90
23089;DHT22;11713;48.506;8.966;2023-03-31T20:58:57;9.10;99.90
23089;DHT22;11713;48.506;8.966;2023-03-31T21:01:26;9.10;99.90
23089;DHT22;11713;48.506;8.966;2023-03-31T21:03:52;9.10;99.90
23089;DHT22;11713;48.506;8.966;2023-03-31T21:06:19;9.10;99.90
23089;DHT22;11713;48.506;8.966;2023-03-31T21:08:50;9.20;99.90
23089;DHT22;11713;48.506;8.966;2023-03-31T21:11:16;9.20;99.90
23089;DHT22;11713;48.506;8.966;2023-03-31T21:13:43;9.20;99.90
23089;DHT22;11713;48.506;8.966;2023-03-31T21:16:10;9.20;99.90
23089;DHT22;11713;48.506;8.966;2023-03-31T21:18:36;9.20;99.90
23089;DHT22;11713;48.506;8.966;2023-03-31T21:21:05;9.20;99.90
23089;DHT22;11713;48.506;8.966;2023-03-31T21:23:32;9.20;99.90
23089;DHT22;11713;48.506;8.966;2023-03-31T21:26:00;9.20;99.90
23089;DHT22;11713;48.506;8.966;2023-03-31T21:28:29;9.20;99.90
23089;DHT22;11713;48.506;8.966;2023-03-31T21:31:01;9.20;99.90
23089;DHT22;11713;48.506;8.966;2023-03-31T21:33:28;9.10;99.90
23089;DHT22;11713;48.506;8.966;2023-03-31T21:35:55;9.10;99.90
23089;DHT22;11713;48.506;8.966;2023-03-31T21:38:22;9.10;99.90
23089;DHT22;11713;48.506;8.966;2023-03-31T21:40:49;9.10;99.90
23089;DHT22;11713;48.506;8.966;2023-03-31T21:43:21;9.00;99.90
23089;DHT22;11713;48.506;8.966;2023-03-31T21:45:47;9.00;99.90
23089;DHT22;11713;48.506;8.966;2023-03-31T21:48:14;9.00;99.90
23089;DHT22;11713;48.506;8.966;2023-03-31T21:50:41;8.90;99.90
23089;DHT22;11713;48.506;8.966;2023-03-31T21:53:11;8.90;99.90
23089;DHT22;11713;48.506;8.966;2023-03-31T21:55:37;8.90;99.90
23089;DHT22;11713;48.506;8.966;2023-03-31T21:58:04;8.90;99.90
23089;DHT22;11713;48.506;8.966;2023-03-31T22:00:31;8.90;99.90
23089;DHT22;11713;48.506;8.966;2023-03-31T22:02:57;8.90;99.90
23089;DHT22;11713;48.506;8.966;2023-03-31T22:05:23;8.90;99.90
23089;DHT22;11713;48.506;8.966;2023-03-31T22:07:49;8.90;99.90
23089;DHT22;11713;48.506;8.966;2023-03-31T22:10:15;8.90;99.90
23089;DHT22;11713;48.506;8.966;2023-03-31T22:12:41;8.90;99.90
23089;DHT22;11713;48.506;8.966;2023-03-31T22:15:08;8.90;99.90
23089;DHT22;11713;48.506;8.966;2023-03-31T22:17:34;8.80;99.90
23089;DHT22;11713;48.506;8.966;2023-03-31T22:20:01;8.80;99.90
23089;DHT22;11713;48.506;8.966;2023-03-31T22:22:28;8.80;99.90
23089;DHT22;11713;48.506;8.966;2023-03-31T22:24:55;8.80;99.90
23089;DHT22;11713;48.506;8.966;2023-03-31T22:27:21;8.80;99.90
23089;DHT22;11713;48.506;8.966;2023-03-31T22:29:47;8.80;99.90
23089;DHT22;11713;48.506;8.966;2023-03-31T22:32:13;8.80;99.90
23089;DHT22;11713;48.506;8.966;2023-03-31T22:34:45;8.80;99.90
23089;DHT22;11713;48.506;8.966;2023-03-31T22:37:13;8.80;99.90
23089;DHT22;11713;48.506;8.966;2023-03-31T22:39:39;8.70;99.90
23089;DHT22;11713;48.506;8.966;2023-03-31T22:42:05;8.70;99.90
23089;DHT22;11713;48.506;8.966;2023-03-31T22:44:31;8.70;99.90
23089;DHT22;11713;48.506;8.966;2023-03-31T22:46:58;8.70;99.90
23089;DHT22;11713;48.506;8.966;2023-03-31T22:49:24;8.60;99.90
23089;DHT22;11713;48.506;8.966;2023-03-31T22:51:53;8.60;99.90
23089;DHT22;11713;48.506;8.966;2023-03-31T22:54:19;8.60;99.90
23089;DHT22;11713;48.506;8.966;2023-03-31T22:56:45;8.60;99.90
23089;DHT22;11713;48.506;8.966;2023-03-31T22:59:11;8.50;99.90
23089;DHT22;11713;48.506;8.966;2023-03-31T23:01:37;8.50;99.90
23089;DHT22;11713;48.506;8.966;2023-03-31T23:04:03;8.50;99.90